sensor_id;sensor_type;location;lat;lon;timestamp;P1;durP1;ratioP1;P2;durP2;ratioP2
25155;SDS011;21913;52.456;13.634;2023-02-22T00:01:36;22.33;;;15.40;;
25155;SDS011;21913;52.456;13.634;2023-02-22T00:06:38;20.02;;;14.80;;
25155;SDS011;21913;52.456;13.634;2023-02-22T00:11:44;21.50;;;15.15;;
25155;SDS011;21913;52.456;13.634;2023-02-22T00:16:46;23.13;;;14.95;;
25155;SDS011;21913;52.456;13.634;2023-02-22T00:21:51;21.23;;;15.40;;
25155;SDS011;21913;52.456;13.634;2023-02-22T00:26:54;20.40;;;14.52;;
25155;SDS011;21913;52.456;13.634;2023-02-22T00:31:56;21.20;;;15.85;;
25155;SDS011;21913;52.456;13.634;2023-02-22T00:36:57;19.70;;;14.60;;
25155;SDS011;21913;52.456;13.634;2023-02-22T00:41:59;19.73;;;14.60;;
25155;SDS011;21913;52.456;13.634;2023-02-22T00:47:02;22.38;;;15.35;;
25155;SDS011;21913;52.456;13.634;2023-02-22T00:52:04;20.83;;;14.63;;
25155;SDS011;21913;52.456;13.634;2023-02-22T00:57:06;20.40;;;14.35;;
25155;SDS011;21913;52.456;13.634;2023-02-22T01:02:07;21.08;;;15.18;;
25155;SDS011;21913;52.456;13.634;2023-02-22T01:07:09;20.33;;;14.68;;
25155;SDS011;21913;52.456;13.634;2023-02-22T01:12:11;20.40;;;14.50;;
25155;SDS011;21913;52.456;13.634;2023-02-22T01:17:13;21.80;;;14.85;;
25155;SDS011;21913;52.456;13.634;2023-02-22T01:22:15;19.85;;;14.07;;
25155;SDS011;21913;52.456;13.634;2023-02-22T01:27:18;21.20;;;13.95;;
25155;SDS011;21913;52.456;13.634;2023-02-22T01:32:20;19.70;;;14.35;;
25155;SDS011;21913;52.456;13.634;2023-02-22T01:37:22;20.55;;;13.50;;
25155;SDS011;21913;52.456;13.634;2023-02-22T01:42:24;18.55;;;14.27;;
25155;SDS011;21913;52.456;13.634;2023-02-22T01:47:26;19.63;;;14.07;;
25155;SDS011;21913;52.456;13.634;2023-02-22T01:52:28;18.50;;;13.52;;
25155;SDS011;21913;52.456;13.634;2023-02-22T01:57:31;18.95;;;14.10;;
25155;SDS011;21913;52.456;13.634;2023-02-22T02:02:36;19.20;;;14.18;;
25155;SDS011;21913;52.456;13.634;2023-02-22T02:07:40;18.92;;;13.85;;
25155;SDS011;21913;52.456;13.634;2023-02-22T02:12:42;18.65;;;13.40;;
25155;SDS011;21913;52.456;13.634;2023-02-22T02:17:48;18.17;;;12.82;;
25155;SDS011;21913;52.456;13.634;2023-02-22T02:34:01;16.65;;;12.50;;
25155;SDS011;21913;52.456;13.634;2023-02-22T02:39:19;17.90;;;13.05;;
25155;SDS011;21913;52.456;13.634;2023-02-22T02:44:35;17.27;;;12.40;;
25155;SDS011;21913;52.456;13.634;2023-02-22T02:54:55;16.60;;;12.23;;
25155;SDS011;21913;52.456;13.634;2023-02-22T02:59:58;15.88;;;11.93;;
25155;SDS011;21913;52.456;13.634;2023-02-22T03:10:37;15.90;;;11.52;;
25155;SDS011;21913;52.456;13.634;2023-02-22T03:15:55;14.82;;;10.70;;
25155;SDS011;21913;52.456;13.634;2023-02-22T03:26:40;14.25;;;10.95;;
25155;SDS011;21913;52.456;13.634;2023-02-22T03:31:49;14.77;;;10.95;;
25155;SDS011;21913;52.456;13.634;2023-02-22T03:37:10;13.10;;;10.13;;
25155;SDS011;21913;52.456;13.634;2023-02-22T03:42:23;14.52;;;10.20;;
25155;SDS011;21913;52.456;13.634;2023-02-22T03:47:31;14.02;;;10.25;;
25155;SDS011;21913;52.456;13.634;2023-02-22T03:52:40;15.23;;;10.80;;
25155;SDS011;21913;52.456;13.634;2023-02-22T03:57:50;12.82;;;10.38;;
25155;SDS011;21913;52.456;13.634;2023-02-22T04:02:55;13.15;;;9.77;;
25155;SDS011;21913;52.456;13.634;2023-02-22T04:07:57;15.68;;;10.50;;
25155;SDS011;21913;52.456;13.634;2023-02-22T04:13:00;13.15;;;9.68;;
25155;SDS011;21913;52.456;13.634;2023-02-22T04:18:02;14.45;;;9.68;;
25155;SDS011;21913;52.456;13.634;2023-02-22T04:23:04;11.60;;;9.35;;
25155;SDS011;21913;52.456;13.634;2023-02-22T04:28:06;13.20;;;9.23;;
25155;SDS011;21913;52.456;13.634;2023-02-22T04:33:15;11.90;;;9.40;;
25155;SDS011;21913;52.456;13.634;2023-02-22T04:38:17;11.48;;;8.75;;
25155;SDS011;21913;52.456;13.634;2023-02-22T04:43:19;13.77;;;9.00;;
25155;SDS011;21913;52.456;13.634;2023-02-22T04:48:24;11.75;;;8.57;;
25155;SDS011;21913;52.456;13.634;2023-02-22T04:53:25;11.27;;;8.52;;
25155;SDS011;21913;52.456;13.634;2023-02-22T04:58:29;11.70;;;8.82;;
25155;SDS011;21913;52.456;13.634;2023-02-22T05:03:31;10.70;;;8.30;;
25155;SDS011;21913;52.456;13.634;2023-02-22T05:08:32;10.98;;;7.85;;
25155;SDS011;21913;52.456;13.634;2023-02-22T05:13:34;11.57;;;8.10;;
25155;SDS011;21913;52.456;13.634;2023-02-22T05:18:36;9.77;;;8.00;;
25155;SDS011;21913;52.456;13.634;2023-02-22T05:23:37;11.02;;;7.82;;
25155;SDS011;21913;52.456;13.634;2023-02-22T05:28:40;9.77;;;7.40;;
25155;SDS011;21913;52.456;13.634;2023-02-22T05:33:41;10.82;;;7.60;;
25155;SDS011;21913;52.456;13.634;2023-02-22T05:38:43;9.55;;;7.53;;
25155;SDS011;21913;52.456;13.634;2023-02-22T05:43:45;10.15;;;7.75;;
25155;SDS011;21913;52.456;13.634;2023-02-22T05:48:46;10.00;;;7.28;;
25155;SDS011;21913;52.456;13.634;2023-02-22T05:53:48;9.60;;;7.53;;
25155;SDS011;21913;52.456;13.634;2023-02-22T05:58:50;10.60;;;7.15;;
25155;SDS011;21913;52.456;13.634;2023-02-22T06:03:52;9.63;;;7.55;;
25155;SDS011;21913;52.456;13.634;2023-02-22T06:08:54;9.77;;;7.13;;
25155;SDS011;21913;52.456;13.634;2023-02-22T06:13:55;9.60;;;7.28;;
25155;SDS011;21913;52.456;13.634;2023-02-22T06:18:57;8.70;;;6.82;;
25155;SDS011;21913;52.456;13.634;2023-02-22T06:24:00;9.48;;;6.88;;
25155;SDS011;21913;52.456;13.634;2023-02-22T06:29:02;8.52;;;6.97;;
25155;SDS011;21913;52.456;13.634;2023-02-22T06:34:04;10.23;;;6.72;;
25155;SDS011;21913;52.456;13.634;2023-02-22T06:39:06;8.65;;;6.47;;
25155;SDS011;21913;52.456;13.634;2023-02-22T06:44:08;8.65;;;6.88;;
25155;SDS011;21913;52.456;13.634;2023-02-22T06:49:10;9.80;;;6.90;;
25155;SDS011;21913;52.456;13.634;2023-02-22T06:54:14;8.07;;;6.35;;
25155;SDS011;21913;52.456;13.634;2023-02-22T06:59:15;10.13;;;7.10;;
25155;SDS011;21913;52.456;13.634;2023-02-22T07:04:18;8.65;;;6.25;;
25155;SDS011;21913;52.456;13.634;2023-02-22T07:09:19;9.40;;;6.78;;
25155;SDS011;21913;52.456;13.634;2023-02-22T07:14:21;9.25;;;6.80;;
25155;SDS011;21913;52.456;13.634;2023-02-22T07:19:23;9.30;;;6.72;;
25155;SDS011;21913;52.456;13.634;2023-02-22T07:24:25;8.45;;;6.65;;
25155;SDS011;21913;52.456;13.634;2023-02-22T07:29:27;8.90;;;6.28;;
25155;SDS011;21913;52.456;13.634;2023-02-22T07:34:29;10.77;;;6.95;;
25155;SDS011;21913;52.456;13.634;2023-02-22T07:39:31;8.70;;;6.53;;
25155;SDS011;21913;52.456;13.634;2023-02-22T07:44:32;9.70;;;6.30;;
25155;SDS011;21913;52.456;13.634;2023-02-22T07:49:34;9.05;;;6.30;;
25155;SDS011;21913;52.456;13.634;2023-02-22T07:54:35;9.88;;;6.55;;
25155;SDS011;21913;52.456;13.634;2023-02-22T07:59:37;8.63;;;6.05;;
25155;SDS011;21913;52.456;13.634;2023-02-22T08:04:39;9.32;;;6.10;;
25155;SDS011;21913;52.456;13.634;2023-02-22T08:09:40;9.07;;;5.65;;
25155;SDS011;21913;52.456;13.634;2023-02-22T08:14:42;9.35;;;6.32;;
25155;SDS011;21913;52.456;13.634;2023-02-22T08:19:44;8.98;;;6.20;;
25155;SDS011;21913;52.456;13.634;2023-02-22T08:24:45;8.85;;;6.20;;
25155;SDS011;21913;52.456;13.634;2023-02-22T08:29:47;8.05;;;5.82;;
25155;SDS011;21913;52.456;13.634;2023-02-22T08:34:48;8.93;;;6.10;;
25155;SDS011;21913;52.456;13.634;2023-02-22T08:39:51;9.15;;;6.00;;
25155;SDS011;21913;52.456;13.634;2023-02-22T08:44:53;10.00;;;6.30;;
25155;SDS011;21913;52.456;13.634;2023-02-22T08:49:55;8.00;;;5.90;;
25155;SDS011;21913;52.456;13.634;2023-02-22T08:54:57;7.93;;;5.80;;
25155;SDS011;21913;52.456;13.634;2023-02-22T08:59:58;10.02;;;6.63;;
25155;SDS011;21913;52.456;13.634;2023-02-22T09:05:00;16.08;;;8.95;;
25155;SDS011;21913;52.456;13.634;2023-02-22T09:10:02;14.52;;;9.52;;
25155;SDS011;21913;52.456;13.634;2023-02-22T09:15:04;14.50;;;8.50;;
25155;SDS011;21913;52.456;13.634;2023-02-22T09:20:06;12.65;;;8.57;;
25155;SDS011;21913;52.456;13.634;2023-02-22T09:25:08;12.32;;;8.35;;
25155;SDS011;21913;52.456;13.634;2023-02-22T09:30:18;15.55;;;9.80;;
25155;SDS011;21913;52.456;13.634;2023-02-22T09:35:23;17.42;;;10.27;;
25155;SDS011;21913;52.456;13.634;2023-02-22T09:40:25;18.08;;;10.50;;
25155;SDS011;21913;52.456;13.634;2023-02-22T09:45:35;15.57;;;9.25;;
25155;SDS011;21913;52.456;13.634;2023-02-22T09:50:47;14.93;;;9.30;;
25155;SDS011;21913;52.456;13.634;2023-02-22T09:55:51;13.05;;;8.63;;
25155;SDS011;21913;52.456;13.634;2023-02-22T10:00:55;14.63;;;9.00;;
25155;SDS011;21913;52.456;13.634;2023-02-22T10:06:01;14.77;;;8.50;;
25155;SDS011;21913;52.456;13.634;2023-02-22T10:27:13;12.65;;;7.90;;
25155;SDS011;21913;52.456;13.634;2023-02-22T10:32:30;12.50;;;8.10;;
25155;SDS011;21913;52.456;13.634;2023-02-22T10:37:36;12.65;;;7.53;;
25155;SDS011;21913;52.456;13.634;2023-02-22T10:42:38;11.07;;;7.35;;
25155;SDS011;21913;52.456;13.634;2023-02-22T10:47:40;12.10;;;7.65;;
25155;SDS011;21913;52.456;13.634;2023-02-22T10:52:41;11.43;;;7.35;;
25155;SDS011;21913;52.456;13.634;2023-02-22T10:57:44;11.10;;;7.00;;
25155;SDS011;21913;52.456;13.634;2023-02-22T11:02:55;10.88;;;6.80;;
25155;SDS011;21913;52.456;13.634;2023-02-22T11:13:32;10.32;;;6.53;;
25155;SDS011;21913;52.456;13.634;2023-02-22T11:18:38;9.65;;;6.57;;
25155;SDS011;21913;52.456;13.634;2023-02-22T11:23:40;11.57;;;7.00;;
25155;SDS011;21913;52.456;13.634;2023-02-22T11:28:46;13.07;;;6.63;;
25155;SDS011;21913;52.456;13.634;2023-02-22T11:38:55;9.80;;;6.47;;
25155;SDS011;21913;52.456;13.634;2023-02-22T11:49:35;10.15;;;6.03;;
25155;SDS011;21913;52.456;13.634;2023-02-22T12:11:22;11.52;;;5.63;;
25155;SDS011;21913;52.456;13.634;2023-02-22T12:21:55;9.70;;;5.57;;
25155;SDS011;21913;52.456;13.634;2023-02-22T12:27:02;9.80;;;5.90;;
25155;SDS011;21913;52.456;13.634;2023-02-22T12:32:14;8.37;;;5.10;;
25155;SDS011;21913;52.456;13.634;2023-02-22T12:37:31;6.35;;;4.88;;
25155;SDS011;21913;52.456;13.634;2023-02-22T12:48:46;6.25;;;4.40;;
25155;SDS011;21913;52.456;13.634;2023-02-22T12:53:54;8.02;;;4.85;;
25155;SDS011;21913;52.456;13.634;2023-02-22T12:59:14;6.28;;;3.97;;
25155;SDS011;21913;52.456;13.634;2023-02-22T13:04:21;6.80;;;4.30;;
25155;SDS011;21913;52.456;13.634;2023-02-22T13:14:52;6.80;;;4.18;;
25155;SDS011;21913;52.456;13.634;2023-02-22T13:46:10;5.10;;;3.35;;
25155;SDS011;21913;52.456;13.634;2023-02-22T13:51:30;4.65;;;3.33;;
25155;SDS011;21913;52.456;13.634;2023-02-22T13:56:32;4.80;;;3.45;;
25155;SDS011;21913;52.456;13.634;2023-02-22T14:01:39;5.65;;;3.80;;
25155;SDS011;21913;52.456;13.634;2023-02-22T14:06:44;5.10;;;3.53;;
25155;SDS011;21913;52.456;13.634;2023-02-22T14:11:46;3.97;;;3.00;;
25155;SDS011;21913;52.456;13.634;2023-02-22T14:17:14;5.72;;;3.33;;
25155;SDS011;21913;52.456;13.634;2023-02-22T14:22:27;3.78;;;2.97;;
25155;SDS011;21913;52.456;13.634;2023-02-22T14:27:39;4.75;;;3.08;;
25155;SDS011;21913;52.456;13.634;2023-02-22T14:32:44;4.60;;;3.03;;
25155;SDS011;21913;52.456;13.634;2023-02-22T14:37:53;3.80;;;2.75;;
25155;SDS011;21913;52.456;13.634;2023-02-22T14:43:05;6.75;;;4.00;;
25155;SDS011;21913;52.456;13.634;2023-02-22T14:48:58;8.98;;;4.30;;
25155;SDS011;21913;52.456;13.634;2023-02-22T14:53:45;6.45;;;3.40;;
25155;SDS011;21913;52.456;13.634;2023-02-22T14:58:54;7.32;;;4.00;;
25155;SDS011;21913;52.456;13.634;2023-02-22T15:14:32;4.97;;;3.22;;
25155;SDS011;21913;52.456;13.634;2023-02-22T15:19:36;4.80;;;3.22;;
25155;SDS011;21913;52.456;13.634;2023-02-22T15:24:42;4.82;;;2.75;;
25155;SDS011;21913;52.456;13.634;2023-02-22T15:29:48;4.75;;;3.40;;
25155;SDS011;21913;52.456;13.634;2023-02-22T15:35:11;6.20;;;3.10;;
25155;SDS011;21913;52.456;13.634;2023-02-22T15:40:18;5.97;;;2.90;;
25155;SDS011;21913;52.456;13.634;2023-02-22T15:45:21;7.03;;;3.28;;
25155;SDS011;21913;52.456;13.634;2023-02-22T15:50:25;4.63;;;2.95;;
25155;SDS011;21913;52.456;13.634;2023-02-22T15:55:38;5.25;;;3.10;;
25155;SDS011;21913;52.456;13.634;2023-02-22T16:00:42;3.80;;;2.60;;
25155;SDS011;21913;52.456;13.634;2023-02-22T16:05:50;4.55;;;2.67;;
25155;SDS011;21913;52.456;13.634;2023-02-22T16:11:03;3.53;;;2.50;;
25155;SDS011;21913;52.456;13.634;2023-02-22T16:21:19;3.88;;;2.47;;
25155;SDS011;21913;52.456;13.634;2023-02-22T16:26:33;3.83;;;2.40;;
25155;SDS011;21913;52.456;13.634;2023-02-22T16:31:35;3.95;;;2.58;;
25155;SDS011;21913;52.456;13.634;2023-02-22T16:36:43;6.07;;;2.40;;
25155;SDS011;21913;52.456;13.634;2023-02-22T16:41:46;4.40;;;2.47;;
25155;SDS011;21913;52.456;13.634;2023-02-22T16:46:48;4.10;;;2.30;;
25155;SDS011;21913;52.456;13.634;2023-02-22T16:51:50;3.53;;;2.30;;
25155;SDS011;21913;52.456;13.634;2023-02-22T16:56:55;4.40;;;2.15;;
25155;SDS011;21913;52.456;13.634;2023-02-22T17:01:58;3.40;;;2.10;;
25155;SDS011;21913;52.456;13.634;2023-02-22T17:06:59;3.80;;;2.35;;
25155;SDS011;21913;52.456;13.634;2023-02-22T17:12:02;4.15;;;2.33;;
25155;SDS011;21913;52.456;13.634;2023-02-22T17:17:04;3.05;;;2.00;;
25155;SDS011;21913;52.456;13.634;2023-02-22T17:22:06;4.38;;;2.35;;
25155;SDS011;21913;52.456;13.634;2023-02-22T17:27:07;8.10;;;2.00;;
25155;SDS011;21913;52.456;13.634;2023-02-22T17:32:09;3.45;;;1.90;;
25155;SDS011;21913;52.456;13.634;2023-02-22T17:37:11;2.60;;;1.92;;
25155;SDS011;21913;52.456;13.634;2023-02-22T17:42:12;3.70;;;2.00;;
25155;SDS011;21913;52.456;13.634;2023-02-22T17:47:14;2.50;;;1.70;;
25155;SDS011;21913;52.456;13.634;2023-02-22T17:52:16;2.88;;;2.00;;
25155;SDS011;21913;52.456;13.634;2023-02-22T17:57:17;3.58;;;2.00;;
25155;SDS011;21913;52.456;13.634;2023-02-22T18:02:19;2.95;;;1.92;;
25155;SDS011;21913;52.456;13.634;2023-02-22T18:07:20;4.00;;;1.95;;
25155;SDS011;21913;52.456;13.634;2023-02-22T18:12:22;2.65;;;1.83;;
25155;SDS011;21913;52.456;13.634;2023-02-22T18:17:24;2.42;;;1.73;;
25155;SDS011;21913;52.456;13.634;2023-02-22T18:22:34;3.67;;;1.80;;
25155;SDS011;21913;52.456;13.634;2023-02-22T18:27:36;2.53;;;1.77;;
25155;SDS011;21913;52.456;13.634;2023-02-22T18:32:38;2.70;;;1.83;;
25155;SDS011;21913;52.456;13.634;2023-02-22T18:37:40;2.63;;;1.65;;
25155;SDS011;21913;52.456;13.634;2023-02-22T18:42:41;2.50;;;1.75;;
25155;SDS011;21913;52.456;13.634;2023-02-22T18:47:43;2.40;;;1.77;;
25155;SDS011;21913;52.456;13.634;2023-02-22T18:52:45;2.75;;;1.90;;
25155;SDS011;21913;52.456;13.634;2023-02-22T18:57:47;2.45;;;1.83;;
25155;SDS011;21913;52.456;13.634;2023-02-22T19:02:49;2.40;;;1.80;;
25155;SDS011;21913;52.456;13.634;2023-02-22T19:07:51;2.55;;;1.65;;
25155;SDS011;21913;52.456;13.634;2023-02-22T19:12:53;2.35;;;1.60;;
25155;SDS011;21913;52.456;13.634;2023-02-22T19:17:54;2.33;;;1.67;;
25155;SDS011;21913;52.456;13.634;2023-02-22T19:22:56;2.42;;;1.90;;
25155;SDS011;21913;52.456;13.634;2023-02-22T19:27:57;3.33;;;1.85;;
25155;SDS011;21913;52.456;13.634;2023-02-22T19:32:59;4.68;;;1.98;;
25155;SDS011;21913;52.456;13.634;2023-02-22T19:38:01;4.72;;;2.78;;
25155;SDS011;21913;52.456;13.634;2023-02-22T19:43:03;3.22;;;2.20;;
25155;SDS011;21913;52.456;13.634;2023-02-22T19:48:04;4.18;;;2.45;;
25155;SDS011;21913;52.456;13.634;2023-02-22T19:53:06;3.50;;;2.22;;
25155;SDS011;21913;52.456;13.634;2023-02-22T19:58:08;3.40;;;2.20;;
25155;SDS011;21913;52.456;13.634;2023-02-22T20:03:10;3.65;;;2.20;;
25155;SDS011;21913;52.456;13.634;2023-02-22T20:08:11;4.93;;;2.70;;
25155;SDS011;21913;52.456;13.634;2023-02-22T20:13:16;4.15;;;2.45;;
25155;SDS011;21913;52.456;13.634;2023-02-22T20:18:17;4.20;;;2.20;;
25155;SDS011;21913;52.456;13.634;2023-02-22T20:23:21;3.22;;;2.20;;
25155;SDS011;21913;52.456;13.634;2023-02-22T20:28:23;3.65;;;2.33;;
25155;SDS011;21913;52.456;13.634;2023-02-22T20:33:24;3.53;;;2.22;;
25155;SDS011;21913;52.456;13.634;2023-02-22T20:38:26;4.70;;;2.40;;
25155;SDS011;21913;52.456;13.634;2023-02-22T20:43:28;3.63;;;2.35;;
25155;SDS011;21913;52.456;13.634;2023-02-22T20:48:30;3.50;;;2.40;;
25155;SDS011;21913;52.456;13.634;2023-02-22T20:53:33;3.70;;;2.30;;
25155;SDS011;21913;52.456;13.634;2023-02-22T20:58:35;4.03;;;2.47;;
25155;SDS011;21913;52.456;13.634;2023-02-22T21:03:36;5.47;;;2.40;;
25155;SDS011;21913;52.456;13.634;2023-02-22T21:08:38;3.95;;;2.20;;
25155;SDS011;21913;52.456;13.634;2023-02-22T21:13:40;3.90;;;2.40;;
25155;SDS011;21913;52.456;13.634;2023-02-22T21:18:42;4.10;;;2.60;;
25155;SDS011;21913;52.456;13.634;2023-02-22T21:23:46;3.65;;;2.25;;
25155;SDS011;21913;52.456;13.634;2023-02-22T21:28:50;3.80;;;2.47;;
25155;SDS011;21913;52.456;13.634;2023-02-22T21:33:53;5.25;;;2.28;;
25155;SDS011;21913;52.456;13.634;2023-02-22T21:38:57;3.80;;;2.60;;
25155;SDS011;21913;52.456;13.634;2023-02-22T21:44:00;3.90;;;2.38;;
25155;SDS011;21913;52.456;13.634;2023-02-22T21:49:02;4.13;;;2.58;;
25155;SDS011;21913;52.456;13.634;2023-02-22T21:54:05;3.75;;;2.28;;
25155;SDS011;21913;52.456;13.634;2023-02-22T21:59:12;4.15;;;2.50;;
25155;SDS011;21913;52.456;13.634;2023-02-22T22:04:16;3.38;;;2.50;;
25155;SDS011;21913;52.456;13.634;2023-02-22T22:09:30;4.00;;;2.30;;
25155;SDS011;21913;52.456;13.634;2023-02-22T22:14:32;5.72;;;3.10;;
25155;SDS011;21913;52.456;13.634;2023-02-22T22:19:35;6.78;;;2.88;;
25155;SDS011;21913;52.456;13.634;2023-02-22T22:24:38;4.57;;;3.05;;
25155;SDS011;21913;52.456;13.634;2023-02-22T22:29:39;3.35;;;2.65;;
25155;SDS011;21913;52.456;13.634;2023-02-22T22:34:41;3.90;;;2.80;;
25155;SDS011;21913;52.456;13.634;2023-02-22T22:39:43;4.47;;;3.20;;
25155;SDS011;21913;52.456;13.634;2023-02-22T22:44:44;5.15;;;3.13;;
25155;SDS011;21913;52.456;13.634;2023-02-22T22:49:46;5.32;;;3.33;;
25155;SDS011;21913;52.456;13.634;2023-02-22T22:54:48;3.95;;;3.05;;
25155;SDS011;21913;52.456;13.634;2023-02-22T22:59:49;4.82;;;3.38;;
25155;SDS011;21913;52.456;13.634;2023-02-22T23:04:51;5.18;;;3.13;;
25155;SDS011;21913;52.456;13.634;2023-02-22T23:09:52;4.88;;;3.40;;
25155;SDS011;21913;52.456;13.634;2023-02-22T23:14:54;5.07;;;3.50;;
25155;SDS011;21913;52.456;13.634;2023-02-22T23:19:56;5.22;;;3.33;;
25155;SDS011;21913;52.456;13.634;2023-02-22T23:24:57;4.75;;;3.42;;
25155;SDS011;21913;52.456;13.634;2023-02-22T23:29:59;6.13;;;3.80;;
25155;SDS011;21913;52.456;13.634;2023-02-22T23:35:00;4.72;;;3.65;;
25155;SDS011;21913;52.456;13.634;2023-02-22T23:40:02;5.18;;;3.65;;
25155;SDS011;21913;52.456;13.634;2023-02-22T23:45:04;6.30;;;4.43;;
25155;SDS011;21913;52.456;13.634;2023-02-22T23:50:06;6.15;;;4.00;;
25155;SDS011;21913;52.456;13.634;2023-02-22T23:55:08;6.35;;;4.05;;
